createdAt,value
2023-02-06T00:01:35.402Z,99.90
2023-02-06T00:04:02.431Z,99.90
2023-02-06T00:06:29.260Z,99.90
2023-02-06T00:08:56.257Z,99.90
2023-02-06T00:11:23.472Z,99.90
2023-02-06T00:13:50.878Z,99.90
2023-02-06T00:16:22.346Z,99.90
2023-02-06T00:18:49.729Z,99.90
2023-02-06T00:21:20.294Z,99.90
2023-02-06T00:23:47.544Z,99.90
2023-02-06T00:26:14.795Z,99.90
2023-02-06T00:28:41.590Z,99.90
2023-02-06T00:31:09.462Z,99.90
2023-02-06T00:33:36.644Z,99.90
2023-02-06T00:36:03.998Z,99.90
2023-02-06T00:38:31.500Z,99.90
2023-02-06T00:40:58.544Z,99.90
2023-02-06T00:43:25.466Z,99.90
2023-02-06T00:45:56.349Z,99.90
2023-02-06T00:48:24.821Z,99.90
2023-02-06T00:50:52.999Z,99.90
2023-02-06T00:53:20.686Z,99.90
2023-02-06T00:55:47.614Z,99.90
2023-02-06T00:58:14.599Z,99.90
2023-02-06T01:00:41.453Z,99.90
2023-02-06T01:03:08.378Z,99.90
2023-02-06T01:05:35.515Z,99.90
2023-02-06T01:08:04.430Z,99.90
2023-02-06T01:10:31.840Z,99.90
2023-02-06T01:12:58.729Z,99.90
2023-02-06T01:15:25.926Z,99.90
2023-02-06T01:17:52.834Z,99.90
2023-02-06T01:20:19.835Z,99.90
2023-02-06T01:22:46.694Z,99.90
2023-02-06T01:25:13.687Z,99.90
2023-02-06T01:27:40.656Z,99.90
2023-02-06T01:30:08.269Z,99.90
2023-02-06T01:32:39.409Z,99.90
2023-02-06T01:35:08.163Z,99.90
2023-02-06T01:37:36.673Z,99.90
2023-02-06T01:40:05.861Z,99.90
2023-02-06T01:42:38.054Z,99.90
2023-02-06T01:45:43.826Z,99.90
2023-02-06T01:48:15.024Z,99.90
2023-02-06T01:50:46.350Z,99.90
2023-02-06T01:53:16.717Z,99.90
2023-02-06T01:55:45.690Z,99.90
2023-02-06T01:58:18.087Z,99.90
2023-02-06T02:00:45.661Z,99.90
2023-02-06T02:03:12.907Z,99.90
2023-02-06T02:05:42.186Z,99.90
2023-02-06T02:08:16.528Z,99.90
2023-02-06T02:10:43.847Z,99.90
2023-02-06T02:13:10.698Z,99.90
2023-02-06T02:15:47.051Z,99.90
2023-02-06T02:18:24.475Z,99.90
2023-02-06T02:20:59.999Z,99.90
2023-02-06T02:23:49.465Z,99.90
2023-02-06T02:26:45.176Z,99.90
2023-02-06T02:29:32.911Z,99.90
2023-02-06T02:32:28.229Z,99.90
2023-02-06T02:35:15.201Z,99.90
2023-02-06T02:37:56.807Z,99.90
2023-02-06T02:40:49.056Z,99.90
2023-02-06T02:43:22.971Z,99.90
2023-02-06T02:46:00.378Z,99.90
2023-02-06T02:48:38.485Z,99.90
2023-02-06T02:51:06.149Z,99.90
2023-02-06T02:53:33.052Z,99.90
2023-02-06T02:56:00.273Z,99.90
2023-02-06T02:58:33.635Z,99.90
2023-02-06T03:01:09.082Z,99.90
2023-02-06T03:03:39.644Z,99.90
2023-02-06T03:06:30.902Z,99.90
2023-02-06T03:09:03.869Z,99.90
2023-02-06T03:11:30.958Z,99.90
2023-02-06T03:14:01.554Z,99.90
2023-02-06T03:17:17.862Z,99.90
2023-02-06T03:19:53.476Z,99.90
2023-02-06T03:22:21.398Z,99.90
2023-02-06T03:24:51.382Z,99.90
2023-02-06T03:27:20.159Z,99.90
2023-02-06T03:29:49.206Z,99.90
2023-02-06T03:32:24.111Z,99.90
2023-02-06T03:34:57.642Z,99.90
2023-02-06T03:37:25.256Z,99.90
2023-02-06T03:39:52.286Z,99.90
2023-02-06T03:42:20.868Z,99.90
2023-02-06T03:45:01.680Z,99.90
2023-02-06T03:47:30.586Z,99.90
2023-02-06T03:50:00.342Z,99.90
2023-02-06T03:52:33.887Z,99.90
2023-02-06T03:55:12.424Z,99.90
2023-02-06T03:57:41.916Z,99.90
2023-02-06T04:00:09.574Z,99.90
2023-02-06T04:02:37.207Z,99.90
2023-02-06T04:05:04.275Z,99.90
2023-02-06T04:07:33.266Z,99.90
2023-02-06T04:10:00.119Z,99.90
2023-02-06T04:12:28.120Z,99.90
2023-02-06T04:14:54.964Z,99.90
2023-02-06T04:17:40.645Z,99.90
2023-02-06T04:20:09.453Z,99.90
2023-02-06T04:22:36.341Z,99.90
2023-02-06T04:25:03.281Z,99.90
2023-02-06T04:27:30.144Z,99.90
2023-02-06T04:29:56.961Z,99.90
2023-02-06T04:32:24.057Z,99.90
2023-02-06T04:34:51.083Z,99.90
2023-02-06T04:37:17.907Z,99.90
2023-02-06T04:39:44.756Z,99.90
2023-02-06T04:42:11.590Z,99.90
2023-02-06T04:44:38.599Z,99.90
2023-02-06T04:47:05.690Z,99.90
2023-02-06T04:49:32.733Z,99.90
2023-02-06T04:51:59.807Z,99.90
2023-02-06T04:54:26.693Z,99.90
2023-02-06T04:56:53.538Z,99.90
2023-02-06T04:59:20.370Z,99.90
2023-02-06T05:01:47.355Z,99.90
2023-02-06T05:04:14.211Z,99.90
2023-02-06T05:06:41.125Z,99.90
2023-02-06T05:09:08.258Z,99.90
2023-02-06T05:11:35.178Z,99.90
2023-02-06T05:14:02.027Z,99.90
2023-02-06T05:16:28.909Z,99.90
2023-02-06T05:18:57.220Z,99.90
2023-02-06T05:21:25.453Z,99.90
2023-02-06T05:23:52.489Z,99.90
2023-02-06T05:26:19.932Z,99.90
2023-02-06T05:28:47.475Z,99.90
2023-02-06T05:31:19.733Z,99.90
2023-02-06T05:33:51.089Z,99.90
2023-02-06T05:36:20.146Z,99.90
2023-02-06T05:38:48.091Z,99.90
2023-02-06T05:41:15.795Z,99.90
2023-02-06T05:43:43.026Z,99.90
2023-02-06T05:46:11.347Z,99.90
2023-02-06T05:48:38.628Z,99.90
2023-02-06T05:51:05.722Z,99.90
2023-02-06T05:53:32.658Z,99.90
2023-02-06T05:55:59.545Z,99.90
2023-02-06T05:58:26.504Z,99.90
2023-02-06T06:00:53.342Z,99.90
2023-02-06T06:03:20.235Z,99.90
2023-02-06T06:05:47.287Z,99.90
2023-02-06T06:08:15.119Z,99.90
2023-02-06T06:10:42.172Z,99.90
2023-02-06T06:13:09.175Z,99.90
2023-02-06T06:15:36.444Z,99.90
2023-02-06T06:18:03.951Z,99.90
2023-02-06T06:20:30.836Z,99.90
2023-02-06T06:22:57.669Z,99.90
2023-02-06T06:25:24.535Z,99.90
2023-02-06T06:27:51.426Z,99.90
2023-02-06T06:30:18.474Z,99.90
2023-02-06T06:32:45.334Z,99.90
2023-02-06T06:35:12.199Z,99.90
2023-02-06T06:37:39.030Z,99.90
2023-02-06T06:40:06.143Z,99.90
2023-02-06T06:42:32.981Z,99.90
2023-02-06T06:44:59.866Z,99.90
2023-02-06T06:47:26.778Z,99.90
2023-02-06T06:49:53.584Z,99.90
2023-02-06T06:52:25.456Z,99.90
2023-02-06T06:54:53.123Z,99.90
2023-02-06T06:57:20.938Z,99.90
2023-02-06T06:59:47.870Z,99.90
2023-02-06T07:02:15.257Z,99.90
2023-02-06T07:04:42.413Z,99.90
2023-02-06T07:07:10.234Z,99.90
2023-02-06T07:09:37.082Z,99.90
2023-02-06T07:12:04.571Z,99.90
2023-02-06T07:14:31.492Z,99.90
2023-02-06T07:16:59.999Z,99.90
2023-02-06T07:19:26.847Z,99.90
2023-02-06T07:21:54.166Z,99.90
2023-02-06T07:24:21.118Z,99.90
2023-02-06T07:26:47.980Z,99.90
2023-02-06T07:29:14.797Z,99.90
2023-02-06T07:31:41.890Z,99.90
2023-02-06T07:34:08.786Z,99.90
2023-02-06T07:36:35.823Z,99.90
2023-02-06T07:39:04.228Z,99.90
2023-02-06T07:41:31.047Z,99.90
2023-02-06T07:43:57.947Z,99.90
2023-02-06T07:46:24.893Z,99.90
2023-02-06T07:48:51.783Z,99.90
2023-02-06T07:51:18.715Z,99.90
2023-02-06T07:53:45.613Z,99.90
2023-02-06T07:56:15.035Z,99.90
2023-02-06T07:58:42.156Z,99.90
2023-02-06T08:01:09.503Z,99.90
2023-02-06T08:03:36.965Z,99.90
2023-02-06T08:06:11.993Z,99.90
2023-02-06T08:08:39.148Z,99.90
2023-02-06T08:11:10.879Z,99.90
2023-02-06T08:13:37.854Z,99.90
2023-02-06T08:16:11.546Z,99.90
2023-02-06T08:18:38.790Z,99.90
2023-02-06T08:21:08.157Z,99.90
2023-02-06T08:23:35.042Z,99.90
2023-02-06T08:26:07.727Z,99.90
2023-02-06T08:28:35.547Z,99.90
2023-02-06T08:31:20.697Z,99.90
2023-02-06T08:33:49.267Z,99.90
2023-02-06T08:36:17.824Z,99.90
2023-02-06T08:38:44.933Z,99.90
2023-02-06T08:41:24.687Z,99.90
2023-02-06T08:43:54.492Z,99.90
2023-02-06T08:46:24.615Z,99.90
2023-02-06T08:48:59.820Z,99.90
2023-02-06T08:51:35.319Z,99.90
2023-02-06T08:54:05.647Z,99.90
2023-02-06T08:56:34.459Z,99.90
2023-02-06T08:59:02.144Z,99.90
2023-02-06T09:01:31.549Z,99.90
2023-02-06T09:04:00.766Z,99.90
2023-02-06T09:06:28.702Z,99.90
2023-02-06T09:08:56.993Z,99.90
2023-02-06T09:11:25.768Z,99.90
2023-02-06T09:13:55.856Z,99.90
2023-02-06T09:16:23.428Z,99.90
2023-02-06T09:18:53.929Z,99.90
2023-02-06T09:21:24.294Z,99.90
2023-02-06T09:23:54.002Z,96.60
2023-02-06T09:26:23.895Z,94.30
2023-02-06T09:28:58.750Z,93.90
2023-02-06T09:31:27.281Z,91.50
2023-02-06T09:33:54.196Z,90.10
2023-02-06T09:36:22.161Z,88.50
2023-02-06T09:38:51.584Z,87.80
2023-02-06T09:41:22.711Z,88.50
2023-02-06T09:43:57.120Z,88.80
2023-02-06T09:46:29.209Z,83.90
2023-02-06T09:48:58.868Z,80.20
2023-02-06T09:51:57.028Z,75.70
2023-02-06T09:54:29.790Z,71.70
2023-02-06T09:57:08.081Z,69.10
2023-02-06T09:59:45.142Z,68.10
2023-02-06T10:02:39.792Z,64.20
2023-02-06T10:05:20.760Z,63.00
2023-02-06T10:08:10.495Z,61.90
2023-02-06T10:11:21.526Z,64.70
2023-02-06T10:13:50.702Z,66.60
2023-02-06T10:16:45.908Z,66.50
2023-02-06T10:19:37.002Z,67.90
2023-02-06T10:22:12.701Z,70.40
2023-02-06T10:24:57.727Z,71.90
2023-02-06T10:27:24.616Z,71.80
2023-02-06T10:29:51.507Z,74.10
2023-02-06T10:32:27.973Z,74.60
2023-02-06T10:35:18.544Z,73.20
2023-02-06T10:38:15.065Z,74.40
2023-02-06T10:40:56.109Z,75.80
2023-02-06T10:43:33.652Z,76.80
2023-02-06T10:46:05.618Z,74.70
2023-02-06T10:49:09.372Z,76.20
2023-02-06T10:51:42.522Z,76.10
2023-02-06T10:54:23.091Z,78.00
2023-02-06T10:56:52.459Z,77.20
2023-02-06T10:59:28.658Z,76.90
2023-02-06T11:02:12.677Z,75.00
2023-02-06T11:04:44.582Z,75.30
2023-02-06T11:07:38.011Z,73.80
2023-02-06T11:10:07.122Z,73.40
2023-02-06T11:12:41.490Z,73.90
2023-02-06T11:15:39.129Z,73.70
2023-02-06T11:18:08.634Z,73.00
2023-02-06T11:20:38.600Z,75.50
2023-02-06T11:23:16.405Z,77.00
2023-02-06T11:25:44.186Z,79.50
2023-02-06T11:28:18.279Z,80.10
2023-02-06T11:31:06.656Z,79.50
2023-02-06T11:33:41.689Z,81.80
2023-02-06T11:36:23.566Z,83.10
2023-02-06T11:39:02.372Z,84.00
2023-02-06T11:41:30.375Z,86.50
2023-02-06T11:44:06.746Z,87.50
2023-02-06T11:46:36.596Z,88.40
2023-02-06T11:49:20.566Z,89.10
2023-02-06T11:51:56.374Z,90.10
2023-02-06T11:54:32.215Z,90.50
2023-02-06T11:57:08.189Z,90.70
2023-02-06T11:59:54.008Z,91.60
2023-02-06T12:02:32.926Z,91.90
2023-02-06T12:05:11.130Z,92.30
2023-02-06T12:07:57.804Z,92.70
2023-02-06T12:10:26.623Z,93.80
2023-02-06T12:13:21.407Z,93.90
2023-02-06T12:15:53.540Z,95.00
2023-02-06T12:18:34.500Z,96.40
2023-02-06T12:21:24.726Z,96.20
2023-02-06T12:24:03.573Z,96.90
2023-02-06T12:26:35.344Z,97.20
2023-02-06T12:29:22.773Z,97.80
2023-02-06T12:31:53.896Z,98.40
2023-02-06T12:34:25.315Z,98.50
2023-02-06T12:37:14.399Z,98.60
2023-02-06T12:39:43.371Z,98.90
2023-02-06T12:42:28.336Z,99.30
2023-02-06T12:45:12.614Z,99.50
2023-02-06T12:47:49.438Z,99.50
2023-02-06T12:50:32.163Z,99.90
2023-02-06T12:53:13.538Z,99.90
2023-02-06T12:55:40.355Z,99.90
2023-02-06T12:58:28.168Z,99.90
2023-02-06T13:01:29.358Z,99.90
2023-02-06T13:04:04.672Z,99.90
2023-02-06T13:06:57.729Z,99.90
2023-02-06T13:09:35.082Z,99.90
2023-02-06T13:12:20.376Z,99.90
2023-02-06T13:14:51.417Z,99.90
2023-02-06T13:17:26.638Z,99.90
2023-02-06T13:20:17.136Z,99.90
2023-02-06T13:22:45.714Z,99.90
2023-02-06T13:25:30.900Z,99.90
2023-02-06T13:28:22.248Z,99.90
2023-02-06T13:30:59.144Z,99.90
2023-02-06T13:33:38.000Z,99.90
2023-02-06T13:36:10.135Z,99.90
2023-02-06T13:38:39.027Z,99.90
2023-02-06T13:41:14.764Z,99.90
2023-02-06T13:43:56.557Z,99.90
2023-02-06T13:46:33.433Z,99.90
2023-02-06T13:49:30.137Z,99.90
2023-02-06T13:52:00.063Z,99.90
2023-02-06T13:54:45.214Z,99.90
2023-02-06T13:57:25.382Z,99.90
2023-02-06T13:59:55.055Z,99.90
2023-02-06T14:02:30.296Z,99.90
2023-02-06T14:05:03.001Z,99.90
2023-02-06T14:07:50.435Z,99.90
2023-02-06T14:10:23.208Z,99.90
2023-02-06T14:12:50.025Z,99.90
2023-02-06T14:15:36.687Z,99.90
2023-02-06T14:18:32.793Z,99.90
2023-02-06T14:21:20.984Z,99.90
2023-02-06T14:24:08.768Z,99.90
2023-02-06T14:26:41.305Z,99.90
2023-02-06T14:29:44.334Z,99.90
2023-02-06T14:32:14.191Z,99.90
2023-02-06T14:34:49.559Z,99.90
2023-02-06T14:37:25.310Z,99.90
2023-02-06T14:39:57.408Z,99.90
2023-02-06T14:42:28.724Z,99.90
2023-02-06T14:45:01.275Z,99.90
2023-02-06T14:47:31.905Z,99.90
2023-02-06T14:50:00.770Z,99.90
2023-02-06T14:52:31.418Z,99.90
2023-02-06T14:54:58.581Z,99.90
2023-02-06T14:57:31.102Z,99.90
2023-02-06T15:00:01.510Z,99.90
2023-02-06T15:02:30.128Z,99.90
2023-02-06T15:04:58.506Z,99.90
2023-02-06T15:07:38.085Z,99.90
2023-02-06T15:10:15.362Z,99.90
2023-02-06T15:12:50.623Z,99.90
2023-02-06T15:15:20.341Z,99.90
2023-02-06T15:18:03.510Z,99.90
2023-02-06T15:20:43.288Z,99.90
2023-02-06T15:23:25.414Z,99.90
2023-02-06T15:26:10.837Z,99.90
2023-02-06T15:28:38.250Z,99.90
2023-02-06T15:31:15.067Z,99.90
2023-02-06T15:33:41.978Z,99.90
2023-02-06T15:36:39.725Z,99.90
2023-02-06T15:39:09.671Z,99.90
2023-02-06T15:41:37.468Z,99.90
2023-02-06T15:44:29.948Z,99.90
2023-02-06T15:46:58.040Z,99.90
2023-02-06T15:49:38.173Z,99.90
2023-02-06T15:52:05.798Z,99.90
2023-02-06T15:54:34.054Z,99.90
2023-02-06T15:57:28.469Z,99.90
2023-02-06T15:59:58.675Z,99.90
2023-02-06T16:02:36.942Z,99.90
2023-02-06T16:05:06.045Z,99.90
2023-02-06T16:07:36.089Z,99.90
2023-02-06T16:10:08.970Z,99.90
2023-02-06T16:12:42.380Z,99.90
2023-02-06T16:15:27.725Z,99.90
2023-02-06T16:17:55.370Z,99.90
2023-02-06T16:20:42.433Z,99.90
2023-02-06T16:23:51.188Z,99.90
2023-02-06T16:26:27.502Z,99.90
2023-02-06T16:29:02.103Z,99.90
2023-02-06T16:31:31.293Z,99.90
2023-02-06T16:34:05.545Z,99.90
2023-02-06T16:36:33.635Z,99.90
2023-02-06T16:39:04.432Z,99.90
2023-02-06T16:41:36.181Z,99.90
2023-02-06T16:44:04.934Z,99.90
2023-02-06T16:46:31.952Z,99.90
2023-02-06T16:48:59.949Z,99.90
2023-02-06T16:51:29.504Z,99.90
2023-02-06T16:53:57.388Z,99.90
2023-02-06T16:56:24.652Z,99.90
2023-02-06T16:58:51.574Z,99.90
2023-02-06T17:01:25.680Z,99.90
2023-02-06T17:03:53.371Z,99.90
2023-02-06T17:06:32.070Z,99.90
2023-02-06T17:09:03.495Z,99.90
2023-02-06T17:11:33.778Z,99.90
2023-02-06T17:14:00.700Z,99.90
2023-02-06T17:16:28.484Z,99.90
2023-02-06T17:18:56.652Z,99.90
2023-02-06T17:21:24.948Z,99.90
2023-02-06T17:23:52.168Z,99.90
2023-02-06T17:26:22.347Z,99.90
2023-02-06T17:28:49.584Z,99.90
2023-02-06T17:31:16.965Z,99.90
2023-02-06T17:33:43.876Z,99.90
2023-02-06T17:36:17.456Z,99.90
2023-02-06T17:38:44.636Z,99.90
2023-02-06T17:41:11.511Z,99.90
2023-02-06T17:43:38.355Z,99.90
2023-02-06T17:46:06.200Z,99.90
2023-02-06T17:48:36.709Z,99.90
2023-02-06T17:51:05.443Z,99.90
2023-02-06T17:53:32.381Z,99.90
2023-02-06T17:56:04.623Z,99.90
2023-02-06T17:58:31.898Z,99.90
2023-02-06T18:00:58.733Z,99.90
2023-02-06T18:03:25.667Z,99.90
2023-02-06T18:06:00.393Z,99.90
2023-02-06T18:08:28.731Z,99.90
2023-02-06T18:10:56.193Z,99.90
2023-02-06T18:13:24.533Z,99.90
2023-02-06T18:15:56.807Z,99.90
2023-02-06T18:18:24.826Z,99.90
2023-02-06T18:20:52.326Z,99.90
2023-02-06T18:23:19.571Z,99.90
2023-02-06T18:25:46.455Z,99.90
2023-02-06T18:28:14.927Z,99.90
2023-02-06T18:30:42.141Z,99.90
2023-02-06T18:33:09.459Z,99.90
2023-02-06T18:35:41.077Z,99.90
2023-02-06T18:38:10.004Z,99.90
2023-02-06T18:40:40.925Z,99.90
2023-02-06T18:43:08.413Z,99.90
2023-02-06T18:45:37.668Z,99.90
2023-02-06T18:48:07.233Z,99.90
2023-02-06T18:50:35.707Z,99.90
2023-02-06T18:53:02.797Z,99.90
2023-02-06T18:55:30.219Z,99.90
2023-02-06T18:57:57.174Z,99.90
2023-02-06T19:00:24.626Z,99.90
2023-02-06T19:02:51.528Z,99.90
2023-02-06T19:05:19.326Z,99.90
2023-02-06T19:07:51.495Z,99.90
2023-02-06T19:10:20.286Z,99.90
2023-02-06T19:12:47.923Z,99.90
2023-02-06T19:15:16.243Z,99.90
2023-02-06T19:17:43.505Z,99.90
2023-02-06T19:20:11.432Z,99.90
2023-02-06T19:22:38.814Z,99.90
2023-02-06T19:25:11.356Z,99.90
2023-02-06T19:27:39.468Z,99.90
2023-02-06T19:30:08.120Z,99.90
2023-02-06T19:32:35.618Z,99.90
2023-02-06T19:35:03.384Z,99.90
2023-02-06T19:37:30.422Z,99.90
2023-02-06T19:39:57.499Z,99.90
2023-02-06T19:42:24.630Z,99.90
2023-02-06T19:44:54.039Z,99.90
2023-02-06T19:47:21.384Z,99.90
2023-02-06T19:49:52.609Z,99.90
2023-02-06T19:52:19.926Z,99.90
2023-02-06T19:54:48.805Z,99.90
2023-02-06T19:57:16.170Z,99.90
2023-02-06T19:59:43.165Z,99.90
2023-02-06T20:02:14.716Z,99.90
2023-02-06T20:04:42.254Z,99.90
2023-02-06T20:07:09.184Z,99.90
2023-02-06T20:09:41.164Z,99.90
2023-02-06T20:12:10.691Z,99.90
2023-02-06T20:14:37.666Z,99.90
2023-02-06T20:17:05.660Z,99.90
2023-02-06T20:19:32.891Z,99.90
2023-02-06T20:22:00.819Z,99.90
2023-02-06T20:24:31.191Z,99.90
2023-02-06T20:27:01.653Z,99.90
2023-02-06T20:29:32.035Z,99.90
2023-02-06T20:31:59.624Z,99.90
2023-02-06T20:34:27.164Z,99.90
2023-02-06T20:36:55.536Z,99.90
2023-02-06T20:39:22.571Z,99.90
2023-02-06T20:41:50.400Z,99.90
2023-02-06T20:44:18.823Z,99.90
2023-02-06T20:46:46.268Z,99.90
2023-02-06T20:49:18.806Z,99.90
2023-02-06T20:51:46.098Z,99.90
2023-02-06T20:54:13.136Z,99.90
2023-02-06T20:56:40.790Z,99.90
2023-02-06T20:59:08.593Z,99.90
2023-02-06T21:01:35.578Z,99.90
2023-02-06T21:04:06.322Z,99.90
2023-02-06T21:06:35.164Z,99.90
2023-02-06T21:09:03.425Z,99.90
2023-02-06T21:11:45.311Z,99.90
2023-02-06T21:14:12.914Z,99.90
2023-02-06T21:16:40.576Z,99.90
2023-02-06T21:19:09.996Z,99.90
2023-02-06T21:21:37.879Z,99.90
2023-02-06T21:24:05.747Z,99.90
2023-02-06T21:26:33.405Z,99.90
2023-02-06T21:29:02.451Z,99.90
2023-02-06T21:31:37.468Z,99.90
2023-02-06T21:34:09.160Z,99.90
2023-02-06T21:36:37.986Z,99.90
2023-02-06T21:39:06.225Z,99.90
2023-02-06T21:41:33.467Z,99.90
2023-02-06T21:44:00.500Z,99.90
2023-02-06T21:46:30.900Z,99.90
2023-02-06T21:48:58.734Z,99.90
2023-02-06T21:51:25.948Z,99.90
2023-02-06T21:53:53.048Z,99.90
2023-02-06T21:56:29.787Z,99.90
2023-02-06T21:58:57.741Z,99.90
2023-02-06T22:01:30.026Z,99.90
2023-02-06T22:03:58.174Z,99.90
2023-02-06T22:06:26.074Z,99.90
2023-02-06T22:08:54.391Z,99.90
2023-02-06T22:11:29.668Z,99.90
2023-02-06T22:14:01.996Z,99.90
2023-02-06T22:16:29.266Z,99.90
2023-02-06T22:18:57.086Z,99.90
2023-02-06T22:21:26.441Z,99.90
2023-02-06T22:23:56.811Z,99.90
2023-02-06T22:26:24.280Z,99.90
2023-02-06T22:28:51.265Z,99.90
2023-02-06T22:31:18.149Z,99.90
2023-02-06T22:33:45.982Z,99.90
2023-02-06T22:36:19.057Z,99.90
2023-02-06T22:38:46.924Z,99.90
2023-02-06T22:41:16.678Z,99.90
2023-02-06T22:43:45.176Z,99.90
2023-02-06T22:46:37.668Z,99.90
2023-02-06T22:49:05.922Z,99.90
2023-02-06T22:51:33.430Z,99.90
2023-02-06T22:54:00.753Z,99.90
2023-02-06T22:56:37.298Z,99.90
2023-02-06T22:59:19.515Z,99.90
2023-02-06T23:01:51.889Z,99.90
2023-02-06T23:04:28.396Z,99.90
2023-02-06T23:06:55.654Z,99.90
2023-02-06T23:09:25.678Z,99.90
2023-02-06T23:11:53.617Z,99.90
2023-02-06T23:14:20.903Z,99.90
2023-02-06T23:16:48.004Z,99.90
2023-02-06T23:19:15.958Z,99.90
2023-02-06T23:21:43.927Z,99.90
2023-02-06T23:24:11.467Z,99.90
2023-02-06T23:26:42.298Z,99.90
2023-02-06T23:29:10.482Z,99.90
2023-02-06T23:31:37.588Z,99.90
2023-02-06T23:34:04.461Z,99.90
2023-02-06T23:36:31.444Z,99.90
2023-02-06T23:39:01.278Z,99.90
2023-02-06T23:41:28.974Z,99.90
2023-02-06T23:43:57.985Z,99.90
2023-02-06T23:46:26.048Z,99.90
2023-02-06T23:48:53.251Z,99.90
2023-02-06T23:51:21.248Z,99.90
2023-02-06T23:53:49.023Z,99.90
2023-02-06T23:56:19.415Z,99.90
2023-02-06T23:58:46.537Z,99.90
